Time;durP1;ratioP1;P1;durP2;ratioP2;P2;SDS_P1;SDS_P2;PMS_P1;PMS_P2;Temp;Humidity;BMP_temperature;BMP_pressure;BME280_temperature;BME280_humidity;BME280_pressure;Samples;Min_cycle;Max_cycle;Signal;HPM_P1;HPM_P2
2021/01/06 00:01:10;;;;;;;55.37;28.03;;;2.60;99.90;;;;;;4903433;29;20555;-90
2021/01/06 00:03:36;;;;;;;60.57;26.20;;;2.60;99.90;;;;;;4903526;29;20267;-90
2021/01/06 00:06:09;;;;;;;60.47;29.67;;;2.70;99.90;;;;;;4919120;29;20649;-91
2021/01/06 00:08:35;;;;;;;64.23;27.27;;;2.70;99.90;;;;;;4927248;29;20235;-92
2021/01/06 00:11:02;;;;;;;71.77;33.10;;;2.90;99.90;;;;;;4936327;29;20685;-92
2021/01/06 00:13:29;;;;;;;62.13;27.53;;;2.70;99.90;;;;;;4936202;29;20172;-90
2021/01/06 00:15:55;;;;;;;71.97;32.10;;;2.70;99.90;;;;;;4937505;29;20183;-92
2021/01/06 00:18:23;;;;;;;56.23;23.67;;;2.80;99.90;;;;;;4934828;29;20557;-92
2021/01/06 00:20:48;;;;;;;59.40;26.20;;;2.70;99.90;;;;;;4934710;29;20188;-92
2021/01/06 00:23:14;;;;;;;45.63;21.70;;;2.70;99.90;;;;;;4935594;29;20191;-92
2021/01/06 00:25:41;;;;;;;50.73;22.60;;;3.00;99.90;;;;;;4919328;29;20196;-90
2021/01/06 00:28:09;;;;;;;48.67;22.47;;;3.10;99.90;;;;;;4935615;29;20252;-91
2021/01/06 00:30:41;;;;;;;50.50;23.30;;;2.80;99.90;;;;;;4936048;29;20223;-92
2021/01/06 00:33:10;;;;;;;45.23;21.60;;;2.80;99.90;;;;;;4935422;29;20181;-90
2021/01/06 00:35:36;;;;;;;51.00;22.87;;;2.80;99.90;;;;;;4936226;29;20203;-92
2021/01/06 00:38:03;;;;;;;46.03;22.23;;;2.70;99.90;;;;;;4918848;29;20662;-90
2021/01/06 00:40:32;;;;;;;56.10;25.17;;;2.90;99.90;;;;;;4934498;29;20184;-93
2021/01/06 00:43:00;;;;;;;120.30;42.17;;;2.80;99.90;;;;;;4935451;29;20648;-91
2021/01/06 00:45:26;;;;;;;90.27;39.33;;;3.20;99.90;;;;;;4934591;29;20187;-91
2021/01/06 00:47:52;;;;;;;121.90;45.70;;;2.80;99.90;;;;;;4934586;29;20195;-91
2021/01/06 00:50:20;;;;;;;91.40;39.40;;;2.80;99.90;;;;;;4937001;29;20192;-93
2021/01/06 00:52:46;;;;;;;52.20;23.43;;;2.90;99.90;;;;;;4937717;29;20191;-91
2021/01/06 00:55:12;;;;;;;43.27;21.47;;;2.90;99.90;;;;;;4938678;29;20190;-90
2021/01/06 00:57:38;;;;;;;53.37;24.93;;;3.60;99.90;;;;;;4939370;29;20665;-91
2021/01/06 01:00:07;;;;;;;66.40;31.03;;;3.70;99.90;;;;;;4938840;29;20195;-91
2021/01/06 01:02:32;;;;;;;48.83;23.23;;;2.90;99.90;;;;;;4938978;29;20212;-91
2021/01/06 01:04:58;;;;;;;48.10;20.57;;;2.90;99.90;;;;;;4938858;29;20184;-91
2021/01/06 01:07:26;;;;;;;48.10;22.77;;;2.90;99.90;;;;;;4938009;29;20271;-91
2021/01/06 01:09:52;;;;;;;47.93;24.07;;;4.30;99.90;;;;;;4906507;29;20215;-92
2021/01/06 01:12:18;;;;;;;42.60;21.63;;;2.90;99.90;;;;;;4922198;29;20625;-91
2021/01/06 01:14:43;;;;;;;34.27;15.73;;;3.00;99.90;;;;;;4921817;29;20272;-91
2021/01/06 01:17:09;;;;;;;33.27;16.53;;;2.80;99.90;;;;;;4906002;29;20309;-91
2021/01/06 01:19:35;;;;;;;33.87;15.53;;;3.50;99.90;;;;;;4906651;29;20275;-92
2021/01/06 01:22:01;;;;;;;34.43;19.70;;;2.80;99.90;;;;;;4921879;29;20184;-93
2021/01/06 01:24:26;;;;;;;64.50;40.13;;;2.80;99.90;;;;;;4921939;29;20180;-92
2021/01/06 01:26:52;;;;;;;53.40;30.17;;;2.70;99.90;;;;;;4905928;29;20245;-93
2021/01/06 01:29:18;;;;;;;34.17;18.07;;;2.60;99.90;;;;;;4921878;29;20183;-93
2021/01/06 01:31:46;;;;;;;40.80;21.23;;;2.60;99.90;;;;;;4906179;29;20251;-93
2021/01/06 01:34:12;;;;;;;47.10;24.63;;;3.20;99.90;;;;;;4906675;29;20197;-92
2021/01/06 01:36:44;;;;;;;49.90;25.47;;;3.40;99.90;;;;;;4921730;29;20251;-91
2021/01/06 01:39:09;;;;;;;36.10;17.00;;;3.40;99.90;;;;;;4921360;29;20230;-90
2021/01/06 01:41:35;;;;;;;57.10;31.90;;;2.60;99.90;;;;;;4938633;29;20188;-91
2021/01/06 01:44:01;;;;;;;61.93;26.70;;;2.50;99.90;;;;;;4905325;29;20190;-91
2021/01/06 01:46:52;;;;;;;57.03;23.90;;;2.50;99.90;;;;;;4905767;29;20235;-91
2021/01/06 01:49:25;;;;;;;111.73;33.87;;;2.50;99.90;;;;;;4910800;29;20652;-90
2021/01/06 01:52:02;;;;;;;45.40;20.33;;;4.20;99.90;;;;;;4938218;29;20174;-91
2021/01/06 01:54:29;;;;;;;89.50;32.83;;;2.60;99.90;;;;;;4938167;29;20196;-91
2021/01/06 01:57:09;;;;;;;42.17;18.53;;;3.10;99.90;;;;;;4920830;29;20666;-92
2021/01/06 01:59:52;;;;;;;75.00;29.97;;;2.60;99.90;;;;;;4921120;29;20178;-90
2021/01/06 02:02:58;;;;;;;41.43;18.33;;;2.60;99.90;;;;;;4938209;29;20252;-90
2021/01/06 02:05:53;;;;;;;57.37;25.77;;;2.60;99.90;;;;;;4920851;29;20190;-90
2021/01/06 02:08:34;;;;;;;45.70;19.73;;;2.60;99.90;;;;;;4937756;29;20235;-92
2021/01/06 02:11:12;;;;;;;41.40;20.43;;;2.60;99.90;;;;;;4938095;29;20535;-91
2021/01/06 02:13:53;;;;;;;40.20;20.40;;;2.60;99.90;;;;;;4938089;29;20177;-90
2021/01/06 02:16:24;;;;;;;48.97;20.80;;;2.60;99.90;;;;;;4920538;29;20180;-90
2021/01/06 02:18:51;;;;;;;47.57;21.00;;;3.40;99.90;;;;;;4920772;29;20211;-91
2021/01/06 02:21:20;;;;;;;44.50;20.70;;;4.20;99.90;;;;;;4905122;29;20705;-90
2021/01/06 02:23:52;;;;;;;46.87;21.77;;;3.50;99.90;;;;;;4921018;29;20191;-92
2021/01/06 02:26:20;;;;;;;69.13;34.13;;;2.60;99.90;;;;;;4920783;29;20183;-91
2021/01/06 02:28:47;;;;;;;49.30;21.80;;;2.60;99.90;;;;;;4920647;29;20200;-91
2021/01/06 02:31:13;;;;;;;44.53;18.77;;;3.60;99.90;;;;;;4921195;29;20308;-93
2021/01/06 02:33:39;;;;;;;51.03;22.67;;;2.60;99.90;;;;;;4905299;29;20198;-92
2021/01/06 02:36:05;;;;;;;40.23;19.23;;;2.60;99.90;;;;;;4920708;29;20184;-94
2021/01/06 02:38:32;;;;;;;62.73;30.10;;;2.60;99.90;;;;;;4937819;29;20211;-93
2021/01/06 02:40:58;;;;;;;51.00;27.60;;;2.60;99.90;;;;;;4937694;29;20182;-92
2021/01/06 02:43:26;;;;;;;39.13;17.93;;;2.60;99.90;;;;;;4920844;29;20325;-93
2021/01/06 02:45:52;;;;;;;70.10;35.13;;;2.60;99.90;;;;;;4937929;29;20183;-93
2021/01/06 02:48:19;;;;;;;43.40;21.27;;;2.60;99.90;;;;;;4920896;29;20184;-91
2021/01/06 02:50:48;;;;;;;53.53;25.33;;;2.50;99.90;;;;;;4920292;29;20247;-92
2021/01/06 02:53:19;;;;;;;49.20;19.67;;;2.50;99.90;;;;;;4920309;29;20228;-91
2021/01/06 02:55:47;;;;;;;44.87;18.87;;;2.70;99.90;;;;;;4920494;29;20190;-91
2021/01/06 02:58:17;;;;;;;45.30;20.43;;;2.50;99.90;;;;;;4920050;29;20232;-91
2021/01/06 03:00:43;;;;;;;47.17;19.30;;;3.50;99.90;;;;;;4920430;29;20191;-92
2021/01/06 03:03:12;;;;;;;54.10;23.17;;;2.60;99.90;;;;;;4919964;29;20275;-91
2021/01/06 03:05:40;;;;;;;50.40;24.37;;;2.70;99.90;;;;;;4937043;29;20176;-91
2021/01/06 03:08:15;;;;;;;57.60;28.20;;;2.70;99.90;;;;;;4912886;29;20291;-92
2021/01/06 03:10:41;;;;;;;43.67;21.47;;;3.40;99.90;;;;;;4945167;29;20195;-92
2021/01/06 03:13:07;;;;;;;46.43;22.13;;;3.30;99.90;;;;;;4939913;29;20188;-92
2021/01/06 03:15:33;;;;;;;42.90;19.07;;;2.50;99.90;;;;;;4938714;29;20184;-92
2021/01/06 03:17:59;;;;;;;46.50;24.50;;;2.60;99.90;;;;;;4944400;29;20198;-93
2021/01/06 03:20:29;;;;;;;42.37;18.97;;;2.60;99.90;;;;;;4944669;29;20188;-91
2021/01/06 03:23:04;;;;;;;40.50;17.83;;;2.50;99.90;;;;;;4960176;29;20199;-90
2021/01/06 03:25:30;;;;;;;40.13;18.73;;;3.50;99.90;;;;;;4960124;29;20187;-93
2021/01/06 03:27:57;;;;;;;47.07;21.30;;;2.50;99.90;;;;;;4960265;29;20152;-92
2021/01/06 03:30:28;;;;;;;45.07;24.03;;;3.40;99.90;;;;;;4944977;29;20180;-92
2021/01/06 03:33:04;;;;;;;42.80;20.53;;;2.90;99.90;;;;;;4943271;29;20183;-92
2021/01/06 03:35:42;;;;;;;42.37;19.40;;;3.40;99.90;;;;;;4957728;29;20175;-91
2021/01/06 03:38:35;;;;;;;52.17;20.17;;;3.50;99.90;;;;;;4960265;29;20203;-93
2021/01/06 03:41:05;;;;;;;46.07;18.17;;;2.50;99.90;;;;;;4960479;29;20176;-91
2021/01/06 03:43:33;;;;;;;46.37;19.00;;;2.50;99.90;;;;;;4945814;29;20236;-93
2021/01/06 03:46:06;;;;;;;43.03;20.87;;;2.50;99.90;;;;;;4919695;29;20188;-92
2021/01/06 03:49:13;;;;;;;47.23;20.53;;;2.90;99.90;;;;;;4936608;29;20184;-92
2021/01/06 03:52:03;;;;;;;45.80;20.40;;;2.50;99.90;;;;;;4936772;29;20164;-92
2021/01/06 03:54:48;;;;;;;50.50;19.83;;;2.90;99.90;;;;;;4916021;29;20708;-92
2021/01/06 03:57:15;;;;;;;54.20;19.93;;;2.50;99.90;;;;;;4934806;29;20267;-91
2021/01/06 03:59:45;;;;;;;49.07;19.63;;;2.70;99.90;;;;;;4936607;29;20191;-94
2021/01/06 04:02:31;;;;;;;45.33;19.83;;;2.50;99.90;;;;;;4936040;29;20251;-93
2021/01/06 04:05:12;;;;;;;47.53;20.57;;;2.50;99.90;;;;;;4934764;29;20320;-92
2021/01/06 04:07:45;;;;;;;50.17;19.27;;;2.50;99.90;;;;;;4935296;29;20229;-91
2021/01/06 04:10:22;;;;;;;50.10;21.60;;;3.90;99.90;;;;;;4935597;29;20215;-91
2021/01/06 04:12:48;;;;;;;50.60;21.47;;;2.40;99.90;;;;;;4934061;29;20184;-91
2021/01/06 04:15:16;;;;;;;42.80;18.37;;;2.40;99.90;;;;;;4928846;29;20299;-90
2021/01/06 04:17:45;;;;;;;44.33;19.30;;;2.40;99.90;;;;;;4928795;29;20565;-89
2021/01/06 04:20:14;;;;;;;41.30;19.80;;;2.40;99.90;;;;;;4936315;29;20270;-89
2021/01/06 04:22:52;;;;;;;48.37;19.57;;;2.30;99.90;;;;;;4936154;29;20187;-88
2021/01/06 04:25:27;;;;;;;46.20;18.30;;;2.90;99.90;;;;;;4939228;29;20176;-88
2021/01/06 04:28:08;;;;;;;43.47;17.73;;;2.30;99.90;;;;;;4923483;29;20196;-88
2021/01/06 04:30:38;;;;;;;41.57;17.83;;;2.30;99.90;;;;;;4920992;29;20267;-92
2021/01/06 04:33:08;;;;;;;47.23;19.63;;;2.30;99.90;;;;;;4920987;29;20200;-92
2021/01/06 04:35:33;;;;;;;42.23;18.47;;;2.20;99.90;;;;;;4920685;29;20275;-91
2021/01/06 04:38:00;;;;;;;51.30;19.43;;;3.80;99.90;;;;;;4913450;29;20753;-92
2021/01/06 04:40:33;;;;;;;45.40;18.17;;;2.30;99.90;;;;;;4937657;29;20215;-92
2021/01/06 04:43:13;;;;;;;41.67;17.87;;;2.30;99.90;;;;;;4951892;29;20173;-92
2021/01/06 04:45:43;;;;;;;43.43;17.93;;;2.30;99.90;;;;;;4939505;29;20180;-90
2021/01/06 04:48:18;;;;;;;41.63;17.17;;;2.50;99.90;;;;;;4939138;29;20562;-91
2021/01/06 04:51:11;;;;;;;45.70;19.23;;;2.30;99.90;;;;;;4945462;29;20179;-91
2021/01/06 04:54:06;;;;;;;51.50;21.50;;;2.40;99.90;;;;;;4946980;29;20253;-90
2021/01/06 04:56:31;;;;;;;64.83;25.67;;;2.40;99.90;;;;;;4949348;28;20215;-92
2021/01/06 04:59:29;;;;;;;58.57;24.53;;;2.40;99.90;;;;;;4957322;29;20223;-92
2021/01/06 05:02:13;;;;;;;50.03;20.90;;;2.40;99.90;;;;;;4936856;29;20190;-93
2021/01/06 05:04:58;;;;;;;65.07;24.80;;;2.40;99.90;;;;;;4957460;29;20187;-91
2021/01/06 05:07:58;;;;;;;48.90;22.97;;;2.40;99.90;;;;;;4958077;29;20644;-92
2021/01/06 05:10:37;;;;;;;52.90;21.47;;;2.40;99.90;;;;;;4941226;29;20246;-92
2021/01/06 05:13:16;;;;;;;41.40;17.70;;;2.40;99.90;;;;;;4941070;29;20190;-92
2021/01/06 05:15:53;;;;;;;45.00;20.03;;;2.40;99.90;;;;;;4940961;29;20239;-93
2021/01/06 05:18:18;;;;;;;44.17;19.37;;;3.70;99.90;;;;;;4957956;29;20290;-94
2021/01/06 05:20:44;;;;;;;49.13;22.57;;;2.40;99.90;;;;;;4925224;29;20283;-92
2021/01/06 05:23:24;;;;;;;52.83;24.83;;;3.10;99.90;;;;;;4940977;29;20187;-92
2021/01/06 05:25:50;;;;;;;57.00;24.00;;;2.80;99.90;;;;;;4958041;29;20167;-92
2021/01/06 05:28:18;;;;;;;54.97;24.30;;;2.90;99.90;;;;;;4957835;29;20698;-89
2021/01/06 05:30:47;;;;;;;39.83;18.77;;;2.40;99.90;;;;;;4940338;29;20186;-92
2021/01/06 05:33:19;;;;;;;41.23;17.23;;;2.40;99.90;;;;;;4932521;29;20190;-90
2021/01/06 05:35:48;;;;;;;40.13;19.23;;;2.30;99.90;;;;;;4951360;28;20706;-91
2021/01/06 05:38:14;;;;;;;39.60;17.33;;;2.50;99.90;;;;;;4924627;29;20214;-92
2021/01/06 05:40:41;;;;;;;40.37;19.33;;;2.30;99.90;;;;;;4957752;29;20236;-91
2021/01/06 05:43:27;;;;;;;42.60;17.73;;;3.30;99.90;;;;;;4957891;29;20230;-91
2021/01/06 05:45:57;;;;;;;31.37;15.07;;;2.20;99.90;;;;;;4928676;29;20183;-90
2021/01/06 05:49:00;;;;;;;31.03;15.53;;;3.00;99.90;;;;;;4922125;29;20188;-88
2021/01/06 05:51:30;;;;;;;35.03;16.50;;;3.20;99.90;;;;;;4827171;29;20195;-88
2021/01/06 05:54:13;;;;;;;28.37;14.13;;;3.10;99.90;;;;;;4921498;29;20195;-89
2021/01/06 05:56:51;;;;;;;32.70;14.63;;;3.30;99.90;;;;;;4948357;29;20549;-90
2021/01/06 05:59:17;;;;;;;29.73;14.57;;;2.50;99.90;;;;;;4932475;29;20294;-90
2021/01/06 06:01:51;;;;;;;35.53;17.33;;;2.50;99.90;;;;;;4940929;29;20215;-89
2021/01/06 06:04:36;;;;;;;54.57;23.20;;;2.40;99.90;;;;;;4943320;29;20172;-88
2021/01/06 06:07:15;;;;;;;59.00;25.70;;;2.30;99.90;;;;;;4936573;29;20227;-89
2021/01/06 06:09:59;;;;;;;64.50;26.90;;;2.30;99.90;;;;;;4904808;29;20196;-88
2021/01/06 06:12:37;;;;;;;54.33;22.80;;;2.30;99.90;;;;;;4904206;29;20546;-88
2021/01/06 06:15:14;;;;;;;37.83;16.33;;;2.20;99.90;;;;;;4944446;29;20634;-88
2021/01/06 06:18:17;;;;;;;31.90;15.67;;;2.20;99.90;;;;;;4929855;29;20203;-89
2021/01/06 06:21:11;;;;;;;36.33;16.33;;;2.20;99.90;;;;;;4924531;29;20593;-92
2021/01/06 06:24:10;;;;;;;38.70;16.87;;;2.20;99.90;;;;;;4920920;29;20191;-89
2021/01/06 06:26:51;;;;;;;35.77;16.53;;;2.20;99.90;;;;;;4938849;29;20261;-95
2021/01/06 06:29:23;;;;;;;36.07;15.60;;;2.40;99.90;;;;;;4921790;29;20283;-94
2021/01/06 06:31:55;;;;;;;37.87;16.63;;;2.20;99.90;;;;;;4921434;29;20191;-93
2021/01/06 06:34:31;;;;;;;72.13;31.83;;;2.90;99.90;;;;;;4939116;29;20195;-96
2021/01/06 06:37:22;;;;;;;71.30;31.80;;;2.20;99.90;;;;;;4938925;29;20207;-94
2021/01/06 06:40:07;;;;;;;90.40;37.30;;;3.40;99.90;;;;;;4935337;29;20709;-95
2021/01/06 06:42:45;;;;;;;100.37;42.23;;;2.20;99.90;;;;;;4938092;29;20176;-94
2021/01/06 06:45:34;;;;;;;95.10;39.10;;;2.20;99.90;;;;;;4921814;29;20176;-93
2021/01/06 06:48:31;;;;;;;71.40;32.50;;;2.20;99.90;;;;;;4920387;29;20190;-95
2021/01/06 06:51:27;;;;;;;44.20;20.20;;;2.20;99.90;;;;;;4920968;29;20269;-90
2021/01/06 06:54:06;;;;;;;58.27;24.60;;;2.20;99.90;;;;;;4920777;29;20183;-93
2021/01/06 06:56:53;;;;;;;57.50;26.53;;;2.20;99.90;;;;;;4920035;29;20183;-92
2021/01/06 06:59:37;;;;;;;65.03;31.73;;;2.10;99.90;;;;;;4927038;29;20735;-91
2021/01/06 07:02:04;;;;;;;61.67;27.53;;;2.20;99.90;;;;;;4917447;29;20269;-91
2021/01/06 07:04:57;;;;;;;53.43;25.93;;;2.20;99.90;;;;;;4901130;29;20188;-90
2021/01/06 07:07:35;;;;;;;63.47;29.87;;;2.90;99.90;;;;;;4902369;29;20196;-92
2021/01/06 07:10:25;;;;;;;70.03;33.60;;;2.20;99.90;;;;;;4920137;29;20229;-94
2021/01/06 07:12:55;;;;;;;54.67;26.53;;;2.20;99.90;;;;;;4926553;29;20538;-91
2021/01/06 07:15:24;;;;;;;71.47;31.87;;;4.20;99.90;;;;;;4919757;29;20270;-91
2021/01/06 07:17:50;;;;;;;60.23;27.73;;;2.20;99.90;;;;;;4919856;29;20230;-92
2021/01/06 07:20:41;;;;;;;73.83;33.30;;;2.20;99.90;;;;;;4919874;29;20525;-90
2021/01/06 07:23:19;;;;;;;54.47;23.07;;;2.20;99.90;;;;;;4936884;29;20680;-87
2021/01/06 07:26:01;;;;;;;53.87;24.43;;;2.20;99.90;;;;;;4919225;29;20259;-89
2021/01/06 07:28:27;;;;;;;66.83;30.23;;;2.20;99.90;;;;;;4936907;29;20180;-91
2021/01/06 07:30:54;;;;;;;63.83;30.00;;;2.20;99.90;;;;;;4904268;29;20712;-92
2021/01/06 07:33:49;;;;;;;71.83;31.97;;;3.10;99.90;;;;;;4920171;29;20624;-93
2021/01/06 07:36:46;;;;;;;73.73;33.43;;;2.30;99.90;;;;;;4922365;29;20183;-89
2021/01/06 07:39:30;;;;;;;61.10;27.77;;;2.60;99.90;;;;;;4936183;29;20552;-89
2021/01/06 07:41:58;;;;;;;59.00;27.03;;;2.30;99.90;;;;;;4930655;29;20183;-90
2021/01/06 07:44:36;;;;;;;81.03;34.23;;;2.30;99.90;;;;;;4938250;29;20546;-92
2021/01/06 07:47:01;;;;;;;76.53;33.97;;;2.40;99.90;;;;;;4955804;29;20166;-91
2021/01/06 07:49:46;;;;;;;61.00;27.03;;;2.40;99.90;;;;;;4935251;29;20558;-91
2021/01/06 07:52:17;;;;;;;68.60;32.67;;;2.30;99.90;;;;;;4939672;29;20183;-91
2021/01/06 07:54:50;;;;;;;65.17;29.07;;;2.30;99.90;;;;;;4936059;29;20235;-91
2021/01/06 07:57:42;;;;;;;59.03;29.50;;;3.60;99.90;;;;;;4936120;29;20633;-91
2021/01/06 08:00:10;;;;;;;50.47;24.47;;;3.30;99.90;;;;;;4928554;29;20684;-92
2021/01/06 08:02:59;;;;;;;69.67;31.97;;;2.30;99.90;;;;;;4944097;29;20640;-90
2021/01/06 08:05:26;;;;;;;58.43;27.77;;;2.40;99.90;;;;;;4946494;29;20705;-90
2021/01/06 08:08:14;;;;;;;50.77;26.03;;;2.40;99.90;;;;;;4936557;29;20238;-92
2021/01/06 08:10:45;;;;;;;50.90;26.40;;;2.50;99.90;;;;;;4945839;29;20188;-93
2021/01/06 08:13:23;;;;;;;50.00;23.67;;;1.00;99.90;;;;;;4944645;29;20179;-91
2021/01/06 08:16:15;;;;;;;61.37;27.10;;;2.50;99.90;;;;;;4922660;29;20266;-91
2021/01/06 08:19:08;;;;;;;63.17;28.97;;;5.40;99.90;;;;;;4952680;28;20214;-90
2021/01/06 08:21:51;;;;;;;65.43;28.43;;;2.60;99.90;;;;;;4935049;29;20264;-90
2021/01/06 08:24:20;;;;;;;67.03;31.23;;;2.60;99.90;;;;;;4940056;29;20183;-90
2021/01/06 08:26:54;;;;;;;34.37;15.93;;;4.10;99.90;;;;;;4933451;29;20188;-90
2021/01/06 08:29:24;;;;;;;49.67;21.77;;;2.60;99.90;;;;;;4942798;29;20183;-89
2021/01/06 08:32:13;;;;;;;37.30;15.97;;;2.60;99.90;;;;;;4935738;29;20235;-91
2021/01/06 08:34:52;;;;;;;45.50;19.43;;;2.60;99.90;;;;;;4924488;29;20198;-90
2021/01/06 08:37:23;;;;;;;41.77;17.40;;;2.60;99.90;;;;;;4935901;29;20169;-87
2021/01/06 08:39:54;;;;;;;38.33;17.13;;;4.20;99.90;;;;;;4935697;29;20364;-89
2021/01/06 08:42:24;;;;;;;39.57;18.70;;;4.70;99.90;;;;;;4936058;29;20255;-90
2021/01/06 08:45:04;;;;;;;31.47;14.93;;;2.60;99.90;;;;;;4937198;29;20192;-92
2021/01/06 08:47:36;;;;;;;45.40;19.20;;;2.60;99.90;;;;;;4941936;29;20547;-91
2021/01/06 08:50:40;;;;;;;51.20;21.97;;;2.60;99.90;;;;;;4915282;29;20184;-90
2021/01/06 08:53:07;;;;;;;64.67;26.27;;;2.70;99.90;;;;;;4915309;29;20333;-90
2021/01/06 08:55:56;;;;;;;45.93;21.67;;;2.70;99.90;;;;;;4931190;29;20325;-90
2021/01/06 08:58:23;;;;;;;50.93;24.30;;;2.70;99.90;;;;;;4928744;29;20204;-90
2021/01/06 09:00:54;;;;;;;56.63;26.30;;;2.80;99.90;;;;;;4941079;29;20192;-89
2021/01/06 09:03:44;;;;;;;49.20;22.27;;;2.80;99.90;;;;;;4935439;29;20188;-91
2021/01/06 09:06:10;;;;;;;44.53;20.63;;;2.80;99.90;;;;;;4943321;29;20185;-90
2021/01/06 09:08:38;;;;;;;43.30;21.57;;;2.80;99.90;;;;;;4942507;29;20285;-90
2021/01/06 09:11:22;;;;;;;46.97;22.23;;;2.90;99.90;;;;;;4936925;29;20188;-91
2021/01/06 09:13:53;;;;;;;35.93;20.33;;;2.90;99.90;;;;;;4937874;29;20282;-89
2021/01/06 09:16:35;;;;;;;28.93;16.77;;;3.70;99.90;;;;;;4937917;29;20296;-90
2021/01/06 09:19:09;;;;;;;38.90;21.07;;;2.90;99.90;;;;;;4938657;29;20218;-90
2021/01/06 09:21:35;;;;;;;41.97;21.47;;;4.70;99.90;;;;;;4937789;29;20184;-90
2021/01/06 09:24:06;;;;;;;40.80;21.57;;;2.90;99.90;;;;;;4938636;29;20657;-93
2021/01/06 09:26:33;;;;;;;47.50;23.97;;;3.10;99.90;;;;;;4937952;29;20658;-92
2021/01/06 09:29:06;;;;;;;62.90;26.67;;;2.90;99.90;;;;;;4921574;29;20204;-90
2021/01/06 09:31:40;;;;;;;60.87;26.77;;;3.20;99.90;;;;;;4939419;29;20224;-92
2021/01/06 09:34:07;;;;;;;54.83;24.77;;;3.00;99.90;;;;;;4939912;29;20182;-91
2021/01/06 09:36:34;;;;;;;45.97;19.57;;;2.90;99.90;;;;;;4951103;29;20182;-90
2021/01/06 09:39:01;;;;;;;45.07;20.90;;;3.00;99.90;;;;;;4944715;29;20218;-91
2021/01/06 09:41:31;;;;;;;50.80;23.13;;;3.00;99.90;;;;;;4945349;29;20210;-87
2021/01/06 09:44:06;;;;;;;48.33;21.73;;;3.00;99.90;;;;;;4948377;29;20216;-90
2021/01/06 09:46:50;;;;;;;59.47;22.47;;;3.10;99.90;;;;;;4960813;29;20161;-88
2021/01/06 09:49:41;;;;;;;54.47;23.70;;;3.20;99.90;;;;;;4961216;29;20277;-86
2021/01/06 09:52:24;;;;;;;43.37;19.73;;;3.20;99.90;;;;;;4957576;29;20213;-84
2021/01/06 09:54:52;;;;;;;46.63;21.70;;;3.20;99.90;;;;;;4945659;29;20196;-89
2021/01/06 09:57:19;;;;;;;49.43;21.83;;;3.20;99.90;;;;;;4922201;29;20196;-89
2021/01/06 09:59:49;;;;;;;47.77;24.13;;;3.30;99.90;;;;;;4930295;29;20649;-85
2021/01/06 10:02:28;;;;;;;47.03;23.60;;;3.40;99.90;;;;;;4968187;29;20193;-89
2021/01/06 10:04:57;;;;;;;39.40;20.30;;;3.40;99.90;;;;;;4980561;28;20183;-89
2021/01/06 10:07:42;;;;;;;50.23;24.97;;;3.50;99.90;;;;;;4973489;28;20187;-91
2021/01/06 10:10:11;;;;;;;42.60;23.13;;;3.50;99.90;;;;;;4943877;29;20258;-94
2021/01/06 10:12:37;;;;;;;50.40;23.70;;;3.60;99.90;;;;;;4942612;29;20191;-92
2021/01/06 10:15:23;;;;;;;47.80;21.90;;;3.70;99.90;;;;;;4940446;29;20196;-90
2021/01/06 10:18:00;;;;;;;35.60;16.33;;;3.70;99.90;;;;;;4940590;29;20576;-94
2021/01/06 10:20:48;;;;;;;48.00;21.77;;;5.30;99.90;;;;;;4940935;29;20545;-92
2021/01/06 10:23:58;;;;;;;40.17;19.50;;;3.70;99.90;;;;;;4939781;29;20194;-90
2021/01/06 10:26:41;;;;;;;52.53;22.83;;;3.70;99.90;;;;;;4937318;29;20223;-92
2021/01/06 10:29:21;;;;;;;49.77;20.77;;;4.40;99.90;;;;;;4932095;29;20423;-92
2021/01/06 10:32:03;;;;;;;41.80;18.93;;;4.70;99.90;;;;;;4944060;29;20204;-93
2021/01/06 10:34:51;;;;;;;42.23;20.20;;;3.90;99.90;;;;;;4928631;29;20548;-92
2021/01/06 10:37:23;;;;;;;43.53;21.57;;;4.00;99.90;;;;;;4938331;29;20705;-92
2021/01/06 10:39:53;;;;;;;67.57;30.07;;;4.20;99.90;;;;;;4940759;29;20195;-92
2021/01/06 10:42:22;;;;;;;54.03;26.03;;;4.20;99.90;;;;;;4924022;29;20184;-91
2021/01/06 10:44:54;;;;;;;50.43;22.97;;;4.30;99.90;;;;;;4919904;29;20190;-91
2021/01/06 10:47:31;;;;;;;47.53;21.80;;;4.30;99.90;;;;;;4935723;29;20657;-91
2021/01/06 10:50:19;;;;;;;52.33;23.63;;;4.40;99.90;;;;;;4933490;29;20179;-91
2021/01/06 10:53:03;;;;;;;46.13;22.40;;;4.40;99.90;;;;;;4944045;29;20187;-92
2021/01/06 10:55:37;;;;;;;53.53;20.93;;;4.50;99.90;;;;;;4926400;29;20664;-91
2021/01/06 10:58:06;;;;;;;38.13;18.60;;;4.50;99.90;;;;;;4937836;29;20301;-91
2021/01/06 11:01:03;;;;;;;35.57;18.40;;;4.70;99.90;;;;;;4921346;29;20337;-93
2021/01/06 11:03:47;;;;;;;49.40;21.53;;;4.50;99.90;;;;;;4931803;29;20254;-93
2021/01/06 11:06:25;;;;;;;47.27;23.60;;;4.60;99.90;;;;;;4937814;29;20628;-93
2021/01/06 11:09:27;;;;;;;47.73;22.43;;;4.80;99.90;;;;;;4938048;29;20230;-93
2021/01/06 11:12:16;;;;;;;49.93;22.13;;;4.90;99.90;;;;;;4891159;29;20193;-94
2021/01/06 11:15:04;;;;;;;49.47;24.00;;;4.90;99.90;;;;;;5061945;23;20306;-96
2021/01/06 11:17:43;;;;;;;38.23;18.57;;;4.90;99.90;;;;;;4937237;29;20657;-94
2021/01/06 11:20:27;;;;;;;42.27;19.47;;;5.00;99.90;;;;;;4959977;29;20206;-96
2021/01/06 11:23:35;;;;;;;32.37;17.80;;;5.00;99.90;;;;;;4950172;29;20186;-95
2021/01/06 11:26:31;;;;;;;33.73;17.10;;;5.10;99.90;;;;;;4930423;29;20275;-95
2021/01/06 11:29:17;;;;;;;41.80;20.63;;;5.00;99.90;;;;;;4937560;29;20189;-91
2021/01/06 11:31:50;;;;;;;42.83;20.50;;;5.00;99.90;;;;;;4954570;28;20182;-94
2021/01/06 11:34:15;;;;;;;36.20;18.47;;;5.10;99.90;;;;;;4937529;29;20182;-96
2021/01/06 11:36:53;;;;;;;36.83;17.63;;;5.60;99.90;;;;;;4960862;28;20270;-94
2021/01/06 11:39:28;;;;;;;42.83;19.40;;;5.10;99.90;;;;;;4937226;29;20214;-92
2021/01/06 11:41:56;;;;;;;46.03;21.70;;;5.20;99.90;;;;;;4951075;29;20187;-91
2021/01/06 11:44:36;;;;;;;46.77;22.40;;;5.20;99.90;;;;;;4936502;29;20844;-93
2021/01/06 11:47:05;;;;;;;39.47;19.53;;;5.30;99.90;;;;;;4955629;28;20190;-91
2021/01/06 11:49:39;;;;;;;47.50;21.93;;;5.30;99.90;;;;;;4951783;29;20187;-92
2021/01/06 11:52:28;;;;;;;45.40;22.23;;;5.20;99.90;;;;;;4943528;29;20181;-91
2021/01/06 11:55:14;;;;;;;53.40;23.80;;;5.20;99.90;;;;;;4939217;29;20250;-93
2021/01/06 11:58:06;;;;;;;37.83;19.03;;;5.20;99.90;;;;;;4931379;29;20214;-93
2021/01/06 12:00:41;;;;;;;41.10;19.10;;;5.20;99.90;;;;;;4933655;29;20295;-91
2021/01/06 12:03:06;;;;;;;33.17;16.47;;;5.20;99.90;;;;;;4940692;29;20203;-93
2021/01/06 12:05:35;;;;;;;39.40;19.13;;;5.90;99.90;;;;;;4960466;28;20182;-93
2021/01/06 12:08:19;;;;;;;34.47;16.73;;;6.70;99.90;;;;;;4943834;28;20205;-91
2021/01/06 12:11:13;;;;;;;29.10;14.60;;;5.20;99.90;;;;;;4953306;29;20210;-92
2021/01/06 12:14:23;;;;;;;28.57;15.53;;;5.20;99.90;;;;;;4945113;29;20190;-93
2021/01/06 12:17:13;;;;;;;32.63;16.73;;;5.20;99.90;;;;;;4895903;29;20236;-89
2021/01/06 12:20:00;;;;;;;32.67;16.80;;;5.10;99.90;;;;;;4943143;29;20229;-93
2021/01/06 12:22:26;;;;;;;37.13;18.83;;;5.20;99.90;;;;;;4945360;29;20191;-91
2021/01/06 12:25:31;;;;;;;43.83;20.90;;;5.30;99.90;;;;;;4942367;29;20191;-93
2021/01/06 12:28:04;;;;;;;39.47;19.33;;;5.20;99.90;;;;;;4934244;29;20737;-94
2021/01/06 12:30:40;;;;;;;36.67;19.10;;;5.20;99.90;;;;;;4944163;28;20183;-93
2021/01/06 12:33:22;;;;;;;35.30;18.07;;;5.20;99.90;;;;;;4955805;29;20174;-91
2021/01/06 12:35:48;;;;;;;44.03;20.23;;;5.10;99.90;;;;;;4931985;29;20239;-93
2021/01/06 12:38:25;;;;;;;43.07;20.03;;;5.00;99.90;;;;;;4936824;29;20212;-94
2021/01/06 12:41:05;;;;;;;47.10;22.27;;;5.10;99.90;;;;;;4935907;29;20194;-95
2021/01/06 12:44:11;;;;;;;44.33;23.23;;;5.00;99.90;;;;;;4949372;29;20210;-95
2021/01/06 12:46:52;;;;;;;41.20;19.93;;;5.00;99.90;;;;;;4943281;29;20220;-96
2021/01/06 12:49:28;;;;;;;48.83;24.93;;;5.00;99.90;;;;;;4951834;29;20246;-95
2021/01/06 12:52:12;;;;;;;44.33;21.80;;;5.00;99.90;;;;;;4948024;29;20217;-93
2021/01/06 12:54:53;;;;;;;40.67;20.13;;;4.90;99.90;;;;;;4960828;29;20189;-91
2021/01/06 12:57:27;;;;;;;39.37;18.73;;;4.90;99.90;;;;;;4973855;28;20186;-90
2021/01/06 12:59:58;;;;;;;36.93;18.17;;;4.90;99.90;;;;;;4951330;29;20195;-93
2021/01/06 13:02:30;;;;;;;32.63;17.30;;;4.90;99.90;;;;;;4946863;28;20205;-91
2021/01/06 13:05:09;;;;;;;34.27;15.90;;;5.40;99.90;;;;;;4947975;29;20188;-91
2021/01/06 13:07:37;;;;;;;46.93;23.30;;;6.80;99.90;;;;;;4940572;29;20203;-89
2021/01/06 13:10:15;;;;;;;54.60;23.40;;;5.00;99.90;;;;;;4941518;29;20354;-94
2021/01/06 13:12:51;;;;;;;57.40;25.23;;;5.00;99.90;;;;;;4940283;29;20185;-93
2021/01/06 13:15:56;;;;;;;59.07;23.77;;;5.00;99.90;;;;;;4939078;29;20289;-91
2021/01/06 13:18:42;;;;;;;59.30;23.60;;;4.90;99.90;;;;;;4909998;29;20329;-91
2021/01/06 13:21:57;;;;;;;53.97;21.87;;;6.00;99.90;;;;;;4938229;29;20659;-91